createdAt,value
2018-11-21T00:00:57.249Z,3.17
2018-11-21T00:03:26.609Z,2.67
2018-11-21T00:05:55.950Z,3.33
2018-11-21T00:08:25.255Z,2.75
2018-11-21T00:10:54.322Z,4.57
2018-11-21T00:13:24.192Z,3.50
2018-11-21T00:15:53.452Z,2.50
2018-11-21T00:18:22.759Z,3.03
2018-11-21T00:20:52.103Z,2.60
2018-11-21T00:23:21.602Z,3.80
2018-11-21T00:25:50.657Z,3.50
2018-11-21T00:28:19.948Z,2.50
2018-11-21T00:30:49.224Z,3.73
2018-11-21T00:43:48.125Z,3.27
2018-11-21T00:46:17.189Z,3.70
2018-11-21T00:48:46.325Z,3.30
2018-11-21T00:51:15.369Z,2.93
2018-11-21T00:53:44.665Z,2.77
2018-11-21T00:56:13.898Z,3.10
2018-11-21T00:58:43.261Z,3.33
2018-11-21T01:01:12.737Z,3.23
2018-11-21T01:03:42.028Z,4.40
2018-11-21T01:06:11.310Z,3.77
2018-11-21T01:08:40.604Z,4.10
2018-11-21T01:11:09.905Z,3.30
2018-11-21T01:13:39.387Z,3.90
2018-11-21T01:16:08.661Z,2.77
2018-11-21T01:18:37.923Z,3.63
2018-11-21T01:21:07.255Z,4.53
2018-11-21T01:23:36.505Z,4.23
2018-11-21T01:26:05.998Z,6.87
2018-11-21T01:28:35.552Z,3.63
2018-11-21T01:31:04.761Z,3.07
2018-11-21T01:33:33.829Z,3.13
2018-11-21T01:36:02.873Z,3.50
2018-11-21T01:38:31.922Z,3.40
2018-11-21T01:41:01.287Z,3.43
2018-11-21T01:43:30.701Z,3.20
2018-11-21T01:45:59.953Z,6.33
2018-11-21T01:48:29.461Z,5.50
2018-11-21T01:50:58.730Z,5.07
2018-11-21T01:53:28.037Z,3.83
2018-11-21T01:55:57.357Z,6.00
2018-11-21T01:58:27.425Z,3.20
2018-11-21T02:00:57.280Z,3.93
2018-11-21T02:03:26.782Z,3.50
2018-11-21T02:05:56.839Z,5.08
2018-11-21T02:08:26.339Z,3.77
2018-11-21T02:10:55.624Z,4.47
2018-11-21T02:13:25.023Z,4.73
2018-11-21T02:15:54.559Z,4.07
2018-11-21T02:18:23.814Z,5.57
2018-11-21T02:20:53.103Z,3.80
2018-11-21T02:23:22.631Z,4.30
2018-11-21T02:25:51.668Z,3.97
2018-11-21T02:28:20.709Z,5.70
2018-11-21T02:30:49.813Z,3.50
2018-11-21T02:33:18.910Z,3.97
2018-11-21T02:35:48.219Z,4.07
2018-11-21T02:38:18.368Z,3.97
2018-11-21T02:40:47.417Z,5.60
2018-11-21T02:43:16.703Z,4.33
2018-11-21T02:45:46.035Z,5.40
2018-11-21T02:48:15.676Z,4.67
2018-11-21T02:50:45.260Z,3.93
2018-11-21T02:53:14.978Z,4.40
2018-11-21T02:55:44.259Z,8.23
2018-11-21T02:58:13.316Z,5.10
2018-11-21T03:00:42.365Z,4.37
2018-11-21T03:03:11.268Z,6.30
2018-11-21T03:05:40.565Z,4.77
2018-11-21T03:08:09.854Z,5.90
2018-11-21T03:10:39.400Z,7.30
2018-11-21T03:13:08.686Z,4.83
2018-11-21T03:15:38.180Z,4.67
2018-11-21T03:18:07.428Z,4.53
2018-11-21T03:20:36.999Z,4.13
2018-11-21T03:23:06.481Z,4.83
2018-11-21T03:25:35.763Z,3.80
2018-11-21T03:28:05.530Z,6.80
2018-11-21T03:30:34.794Z,4.50
2018-11-21T03:33:04.381Z,6.27
2018-11-21T03:35:33.685Z,4.87
2018-11-21T03:38:03.192Z,5.90
2018-11-21T03:40:32.449Z,5.40
2018-11-21T03:43:01.500Z,5.33
2018-11-21T03:45:30.549Z,5.20
2018-11-21T03:47:59.825Z,7.23
2018-11-21T03:50:29.062Z,4.27
2018-11-21T03:52:58.402Z,6.33
2018-11-21T03:55:27.873Z,6.27
2018-11-21T03:57:57.135Z,4.60
2018-11-21T04:00:26.380Z,5.23
2018-11-21T04:02:55.675Z,9.20
2018-11-21T04:05:24.936Z,5.33
2018-11-21T04:07:54.170Z,5.40
2018-11-21T04:10:23.223Z,6.10
2018-11-21T04:12:52.262Z,5.20
2018-11-21T04:15:21.336Z,6.50
2018-11-21T04:17:50.432Z,11.20
2018-11-21T04:20:19.720Z,11.00
2018-11-21T04:22:48.965Z,5.00
2018-11-21T04:25:17.996Z,4.90
2018-11-21T04:27:47.079Z,5.60
2018-11-21T04:30:16.360Z,5.60
2018-11-21T04:32:45.838Z,7.60
2018-11-21T04:35:15.110Z,6.43
2018-11-21T04:37:44.357Z,8.47
2018-11-21T04:40:13.630Z,7.30
2018-11-21T04:42:42.891Z,5.63
2018-11-21T04:45:12.149Z,7.17
2018-11-21T04:47:41.183Z,5.53
2018-11-21T04:50:10.232Z,7.25
2018-11-21T04:52:39.779Z,5.33
2018-11-21T04:55:09.213Z,5.33
2018-11-21T04:57:38.246Z,6.67
2018-11-21T05:00:08.848Z,5.20
2018-11-21T05:02:38.130Z,10.37
2018-11-21T05:05:07.624Z,5.60
2018-11-21T05:07:36.683Z,5.17
2018-11-21T05:10:06.406Z,7.27
2018-11-21T05:12:35.725Z,8.43
2018-11-21T05:15:05.587Z,5.37
2018-11-21T05:17:35.128Z,5.80
2018-11-21T05:20:04.792Z,7.27
2018-11-21T05:22:34.053Z,6.20
2018-11-21T05:25:03.112Z,7.00
2018-11-21T05:27:32.181Z,5.42
2018-11-21T05:30:01.968Z,7.67
2018-11-21T05:32:30.996Z,8.57
2018-11-21T05:35:00.531Z,5.63
2018-11-21T05:37:30.024Z,8.20
2018-11-21T05:39:59.745Z,6.47
2018-11-21T05:42:29.759Z,7.40
2018-11-21T05:44:58.803Z,6.97
2018-11-21T05:47:28.097Z,4.97
2018-11-21T05:49:57.522Z,5.40
2018-11-21T05:52:26.811Z,5.60
2018-11-21T05:54:56.309Z,6.40
2018-11-21T05:57:25.561Z,5.57
2018-11-21T05:59:54.834Z,7.60
2018-11-21T06:02:24.149Z,5.73
2018-11-21T06:04:53.220Z,6.57
2018-11-21T06:07:22.269Z,5.77
2018-11-21T06:09:51.504Z,6.57
2018-11-21T06:12:20.788Z,4.93
2018-11-21T06:14:50.073Z,5.60
2018-11-21T06:17:19.579Z,5.87
2018-11-21T06:19:48.902Z,5.33
2018-11-21T06:22:18.195Z,7.40
2018-11-21T06:24:47.470Z,7.70
2018-11-21T06:27:16.782Z,6.72
2018-11-21T06:29:46.024Z,4.30
2018-11-21T06:32:15.136Z,5.13
2018-11-21T06:34:44.494Z,6.75
2018-11-21T06:37:13.771Z,6.60
2018-11-21T06:39:43.085Z,5.90
2018-11-21T06:42:12.170Z,4.30
2018-11-21T06:44:41.232Z,7.40
2018-11-21T06:47:10.332Z,5.50
2018-11-21T06:49:39.405Z,5.47
2018-11-21T06:52:08.442Z,8.00
2018-11-21T06:54:37.733Z,5.23
2018-11-21T06:57:07.070Z,8.90
2018-11-21T06:59:36.347Z,5.23
2018-11-21T07:02:06.317Z,4.20
2018-11-21T07:04:35.562Z,4.83
2018-11-21T07:07:04.643Z,8.03
2018-11-21T07:09:33.732Z,4.87
2018-11-21T07:12:03.090Z,5.37
2018-11-21T07:14:32.344Z,5.07
2018-11-21T07:17:01.415Z,4.40
2018-11-21T07:19:30.492Z,4.63
2018-11-21T07:22:00.271Z,5.03
2018-11-21T07:24:29.774Z,16.43
2018-11-21T07:26:59.273Z,9.80
2018-11-21T07:29:34.464Z,15.17
2018-11-21T07:31:57.661Z,17.33
2018-11-21T07:34:26.985Z,28.33
2018-11-21T07:36:56.842Z,27.07
2018-11-21T07:39:26.183Z,68.67
2018-11-21T07:41:55.307Z,128.63
2018-11-21T07:44:24.715Z,94.23
2018-11-21T07:46:54.322Z,123.63
2018-11-21T07:49:23.494Z,66.47
2018-11-21T07:51:53.722Z,62.77
2018-11-21T07:54:22.974Z,64.82
2018-11-21T07:57:11.533Z,64.77
2018-11-21T08:00:00.054Z,55.80
2018-11-21T08:02:34.954Z,46.13
2018-11-21T08:05:10.021Z,36.60
2018-11-21T08:07:50.792Z,35.58
2018-11-21T08:10:37.128Z,25.03
2018-11-21T08:13:28.594Z,20.60
2018-11-21T08:16:17.073Z,33.00
2018-11-21T08:19:03.740Z,21.70
2018-11-21T08:22:02.078Z,22.90
2018-11-21T08:24:48.844Z,20.80
2018-11-21T08:27:37.756Z,21.67
2018-11-21T08:30:07.017Z,16.23
2018-11-21T08:32:36.508Z,15.40
2018-11-21T08:35:05.760Z,8.63
2018-11-21T08:37:35.397Z,23.50
2018-11-21T08:40:04.839Z,29.90
2018-11-21T08:42:33.903Z,32.03
2018-11-21T08:45:02.995Z,37.20
2018-11-21T08:47:32.051Z,39.80
2018-11-21T08:50:01.115Z,47.23
2018-11-21T08:52:30.180Z,34.63
2018-11-21T08:54:59.246Z,20.80
2018-11-21T08:57:28.278Z,17.10
2018-11-21T08:59:57.828Z,15.63
2018-11-21T09:02:27.352Z,16.93
2018-11-21T09:04:56.865Z,13.60
2018-11-21T09:07:25.941Z,12.10
2018-11-21T09:09:55.009Z,8.90
2018-11-21T09:12:24.045Z,13.33
2018-11-21T09:14:53.112Z,11.38
2018-11-21T09:17:22.371Z,10.72
2018-11-21T09:19:51.618Z,9.17
2018-11-21T09:22:20.910Z,7.97
2018-11-21T09:24:50.395Z,11.95
2018-11-21T09:27:19.697Z,8.33
2018-11-21T09:29:48.742Z,7.27
2018-11-21T09:32:17.825Z,5.47
2018-11-21T09:34:46.869Z,6.67
2018-11-21T09:37:16.163Z,13.53
2018-11-21T09:39:45.217Z,7.43
2018-11-21T09:42:14.279Z,5.43
2018-11-21T09:44:43.839Z,10.73
2018-11-21T09:47:13.367Z,4.25
2018-11-21T09:49:42.678Z,7.67
2018-11-21T09:52:11.935Z,6.60
2018-11-21T09:54:41.433Z,7.97
2018-11-21T09:57:10.680Z,6.73
2018-11-21T09:59:40.018Z,7.70
2018-11-21T10:02:27.751Z,4.73
2018-11-21T10:04:56.803Z,4.07
2018-11-21T10:07:26.066Z,4.70
2018-11-21T10:09:55.403Z,7.62
2018-11-21T10:12:24.692Z,5.00
2018-11-21T10:14:53.734Z,4.90
2018-11-21T10:17:23.285Z,8.30
2018-11-21T10:19:52.809Z,4.13
2018-11-21T10:22:22.057Z,4.25
2018-11-21T10:24:51.320Z,4.20
2018-11-21T10:27:20.587Z,5.17
2018-11-21T10:29:49.962Z,3.87
2018-11-21T10:32:19.454Z,3.43
2018-11-21T10:34:48.970Z,7.37
2018-11-21T10:37:18.271Z,6.40
2018-11-21T10:39:47.759Z,6.00
2018-11-21T10:42:17.033Z,4.63
2018-11-21T10:44:46.074Z,4.73
2018-11-21T10:47:15.152Z,2.90
2018-11-21T10:49:45.362Z,4.40
2018-11-21T10:52:14.956Z,4.43
2018-11-21T10:54:44.258Z,6.50
2018-11-21T10:57:13.521Z,6.90
2018-11-21T10:59:43.251Z,9.53
2018-11-21T11:02:30.045Z,8.73
2018-11-21T11:05:13.335Z,13.30
2018-11-21T11:08:07.698Z,21.93
2018-11-21T11:11:07.745Z,8.20
2018-11-21T11:13:54.629Z,7.70
2018-11-21T11:16:42.447Z,25.17
2018-11-21T11:19:23.138Z,18.53
2018-11-21T11:22:21.012Z,18.23
2018-11-21T11:25:03.177Z,16.30
2018-11-21T11:27:43.720Z,18.57
2018-11-21T11:30:50.277Z,15.43
2018-11-21T11:33:50.569Z,19.73
2018-11-21T11:36:54.463Z,16.03
2018-11-21T11:39:48.950Z,13.67
2018-11-21T11:42:31.823Z,16.95
2018-11-21T11:45:18.783Z,10.87
2018-11-21T11:48:05.629Z,19.77
2018-11-21T11:50:52.750Z,18.80
2018-11-21T11:53:46.937Z,12.13
2018-11-21T11:56:35.357Z,17.73
2018-11-21T11:59:15.074Z,11.23
2018-11-21T12:01:55.567Z,13.72
2018-11-21T12:04:33.460Z,11.10
2018-11-21T12:07:12.425Z,15.80
2018-11-21T12:09:59.659Z,11.97
2018-11-21T12:12:50.045Z,16.07
2018-11-21T12:15:29.654Z,15.93
2018-11-21T12:18:08.180Z,12.60
2018-11-21T12:20:59.138Z,11.38
2018-11-21T12:23:53.294Z,14.60
2018-11-21T12:26:47.629Z,10.83
2018-11-21T12:29:33.011Z,11.53
2018-11-21T12:32:19.711Z,9.73
2018-11-21T12:35:06.519Z,11.45
2018-11-21T12:38:03.426Z,12.13
2018-11-21T12:40:49.796Z,11.30
2018-11-21T12:43:37.037Z,21.73
2018-11-21T12:46:40.754Z,12.30
2018-11-21T12:49:26.802Z,11.70
2018-11-21T12:52:28.029Z,9.50
2018-11-21T12:55:14.645Z,9.57
2018-11-21T12:57:59.812Z,17.53
2018-11-21T13:00:44.870Z,9.07
2018-11-21T13:03:32.299Z,10.40
2018-11-21T13:06:15.357Z,10.87
2018-11-21T13:09:09.829Z,15.70
2018-11-21T13:11:49.882Z,18.40
2018-11-21T13:14:41.382Z,20.57
2018-11-21T13:17:34.779Z,19.07
2018-11-21T13:20:20.294Z,19.90
2018-11-21T13:23:03.333Z,24.67
2018-11-21T13:25:44.148Z,17.83
2018-11-21T13:28:32.534Z,14.50
2018-11-21T13:31:19.695Z,15.60
2018-11-21T13:34:12.496Z,13.33
2018-11-21T13:37:15.819Z,17.50
2018-11-21T13:40:03.353Z,16.80
2018-11-21T13:42:51.147Z,13.93
2018-11-21T13:45:32.323Z,12.00
2018-11-21T13:48:17.808Z,14.57
2018-11-21T13:51:04.644Z,10.87
2018-11-21T13:53:51.623Z,18.03
2018-11-21T13:56:20.872Z,11.13
2018-11-21T13:58:49.968Z,10.97
2018-11-21T14:01:19.144Z,9.90
2018-11-21T14:03:48.278Z,11.43
2018-11-21T14:06:17.961Z,13.40
2018-11-21T14:08:47.318Z,16.60
2018-11-21T14:11:16.420Z,15.63
2018-11-21T14:13:45.562Z,12.43
2018-11-21T14:16:14.928Z,11.03
2018-11-21T14:18:44.823Z,22.00
2018-11-21T14:21:14.251Z,12.37
2018-11-21T14:23:43.365Z,13.60
2018-11-21T14:26:13.006Z,8.77
2018-11-21T14:28:42.335Z,9.20
2018-11-21T14:31:11.732Z,18.13
2018-11-21T14:33:41.384Z,7.03
2018-11-21T14:36:10.753Z,11.77
2018-11-21T14:38:40.141Z,12.97
2018-11-21T14:41:09.730Z,26.90
2018-11-21T14:43:39.177Z,9.80
2018-11-21T14:46:09.345Z,6.83
2018-11-21T14:48:39.251Z,5.67
2018-11-21T14:51:08.572Z,4.50
2018-11-21T14:53:37.675Z,4.53
2018-11-21T14:56:06.876Z,6.00
2018-11-21T14:58:36.014Z,10.13
2018-11-21T15:01:05.693Z,7.90
2018-11-21T15:03:34.797Z,5.90
2018-11-21T15:06:04.171Z,3.10
2018-11-21T15:08:33.494Z,9.17
2018-11-21T15:11:02.652Z,5.37
2018-11-21T15:13:31.786Z,3.77
2018-11-21T15:16:01.127Z,4.00
2018-11-21T15:18:30.730Z,8.60
2018-11-21T15:21:00.333Z,2.53
2018-11-21T15:23:29.708Z,6.90
2018-11-21T15:25:59.048Z,5.60
2018-11-21T15:28:28.236Z,4.65
2018-11-21T15:30:57.381Z,7.67
2018-11-21T15:33:26.738Z,7.63
2018-11-21T15:35:56.092Z,5.57
2018-11-21T15:38:25.206Z,1.72
2018-11-21T15:40:54.584Z,12.80
2018-11-21T15:43:24.003Z,8.68
2018-11-21T15:45:53.399Z,4.23
2018-11-21T15:48:22.952Z,9.30
2018-11-21T15:50:52.307Z,7.20
2018-11-21T15:53:21.414Z,2.60
2018-11-21T15:55:50.612Z,2.80
2018-11-21T15:58:20.247Z,2.13
2018-11-21T16:00:49.610Z,2.50
2018-11-21T16:03:18.715Z,2.17
2018-11-21T16:05:48.107Z,3.20
2018-11-21T16:08:17.904Z,2.43
2018-11-21T16:10:48.271Z,2.67
2018-11-21T16:13:17.919Z,2.10
2018-11-21T16:15:48.192Z,5.00
2018-11-21T16:18:18.452Z,3.97
2018-11-21T16:20:48.120Z,4.83
2018-11-21T16:23:17.455Z,3.13
2018-11-21T16:25:46.553Z,4.05
2018-11-21T16:28:15.925Z,1.90
2018-11-21T16:30:45.385Z,6.17
2018-11-21T16:33:14.806Z,2.13
2018-11-21T16:35:44.499Z,3.27
2018-11-21T16:38:14.282Z,2.10
2018-11-21T16:40:43.638Z,1.90
2018-11-21T16:43:13.039Z,3.80
2018-11-21T16:45:45.025Z,1.97
2018-11-21T16:48:14.617Z,1.97
2018-11-21T16:50:43.967Z,1.97
2018-11-21T16:53:13.646Z,4.03
2018-11-21T16:55:43.228Z,2.53
2018-11-21T16:58:12.541Z,2.10
2018-11-21T17:00:41.676Z,2.33
2018-11-21T17:03:11.184Z,3.13
2018-11-21T17:05:40.537Z,2.87
2018-11-21T17:08:09.966Z,2.80
2018-11-21T17:10:39.636Z,7.60
2018-11-21T17:13:09.224Z,2.60
2018-11-21T17:15:38.615Z,2.27
2018-11-21T17:18:08.301Z,10.93
2018-11-21T17:20:39.496Z,2.40
2018-11-21T17:23:08.586Z,2.50
2018-11-21T17:25:39.007Z,1.73
2018-11-21T17:28:08.199Z,3.10
2018-11-21T17:30:37.923Z,4.50
2018-11-21T17:33:07.237Z,1.90
2018-11-21T17:35:36.370Z,2.03
2018-11-21T17:38:05.865Z,2.20
2018-11-21T17:40:42.910Z,5.50
2018-11-21T17:43:12.279Z,1.73
2018-11-21T17:45:42.470Z,3.30
2018-11-21T17:48:12.048Z,1.60
2018-11-21T17:50:41.374Z,1.70
2018-11-21T17:53:10.759Z,1.83
2018-11-21T17:55:40.769Z,1.77
2018-11-21T17:58:10.081Z,3.87
2018-11-21T18:00:39.290Z,2.67
2018-11-21T18:03:08.501Z,1.70
2018-11-21T18:05:39.357Z,1.50
2018-11-21T18:08:08.578Z,2.47
2018-11-21T18:10:39.242Z,5.00
2018-11-21T18:13:08.651Z,1.63
2018-11-21T18:15:37.786Z,3.63
2018-11-21T18:18:06.932Z,1.63
2018-11-21T18:20:36.387Z,1.40
2018-11-21T18:23:05.870Z,1.87
2018-11-21T18:25:37.117Z,1.65
2018-11-21T18:28:06.658Z,5.00
2018-11-21T18:30:36.239Z,2.55
2018-11-21T18:33:06.157Z,2.60
2018-11-21T18:35:35.740Z,1.60
2018-11-21T18:38:04.999Z,1.70
2018-11-21T18:40:34.361Z,3.90
2018-11-21T18:43:03.515Z,3.87
2018-11-21T18:45:38.157Z,5.50
2018-11-21T18:48:07.645Z,1.93
2018-11-21T18:50:36.760Z,1.83
2018-11-21T18:53:06.587Z,2.07
2018-11-21T18:55:36.893Z,6.10
2018-11-21T18:58:51.275Z,1.90
2018-11-21T19:01:20.966Z,1.60
2018-11-21T19:03:50.702Z,2.45
2018-11-21T19:06:20.080Z,2.60
2018-11-21T19:08:50.218Z,5.53
2018-11-21T19:11:19.552Z,1.80
2018-11-21T19:13:48.913Z,2.30
2018-11-21T19:16:18.549Z,6.70
2018-11-21T19:18:47.646Z,2.30
2018-11-21T19:21:16.772Z,2.57
2018-11-21T19:23:45.867Z,1.67
2018-11-21T19:26:15.012Z,1.70
2018-11-21T19:28:44.872Z,3.53
2018-11-21T19:31:14.022Z,1.77
2018-11-21T19:33:43.742Z,1.87
2018-11-21T19:36:13.390Z,2.33
2018-11-21T19:38:42.824Z,2.73
2018-11-21T19:41:11.935Z,2.37
2018-11-21T19:43:41.090Z,1.80
2018-11-21T19:46:10.515Z,4.67
2018-11-21T19:48:40.137Z,1.83
2018-11-21T19:51:10.221Z,2.30
2018-11-21T19:53:39.365Z,1.87
2018-11-21T19:56:08.705Z,2.13
2018-11-21T19:58:37.852Z,1.87
2018-11-21T20:01:07.202Z,2.03
2018-11-21T20:03:36.797Z,2.30
2018-11-21T20:06:06.159Z,4.67
2018-11-21T20:08:35.248Z,3.37
2018-11-21T20:11:04.595Z,2.83
2018-11-21T20:13:34.055Z,2.40
2018-11-21T20:16:03.459Z,1.80
2018-11-21T20:18:32.869Z,1.77
2018-11-21T20:21:02.252Z,1.97
2018-11-21T20:23:31.849Z,3.97
2018-11-21T20:26:01.207Z,1.97
2018-11-21T20:28:30.997Z,1.83
2018-11-21T20:31:00.828Z,2.22
2018-11-21T20:33:30.196Z,2.20
2018-11-21T20:35:59.349Z,2.23
2018-11-21T20:38:28.580Z,2.47
2018-11-21T20:40:57.710Z,1.90
2018-11-21T20:43:26.845Z,1.77
2018-11-21T20:45:55.985Z,2.53
2018-11-21T20:48:25.613Z,2.03
2018-11-21T20:50:55.002Z,7.63
2018-11-21T20:53:24.116Z,2.30
2018-11-21T20:55:53.486Z,2.10
2018-11-21T20:58:22.832Z,2.60
2018-11-21T21:00:51.935Z,5.00
2018-11-21T21:03:21.901Z,4.47
2018-11-21T21:05:50.577Z,8.00
2018-11-21T21:08:20.120Z,10.17
2018-11-21T21:10:49.618Z,9.33
2018-11-21T21:13:18.973Z,12.83
2018-11-21T21:15:48.404Z,7.27
2018-11-21T21:18:17.524Z,11.07
2018-11-21T21:20:47.193Z,9.27
2018-11-21T21:23:17.439Z,10.90
2018-11-21T21:25:46.593Z,15.53
2018-11-21T21:28:15.968Z,8.27
2018-11-21T21:30:45.293Z,15.70
2018-11-21T21:33:14.680Z,9.53
2018-11-21T21:35:43.821Z,12.50
2018-11-21T21:38:13.018Z,10.90
2018-11-21T21:40:42.570Z,9.63
2018-11-21T21:43:11.967Z,12.87
2018-11-21T21:45:41.091Z,7.80
2018-11-21T21:48:10.547Z,9.03
2018-11-21T21:50:39.663Z,17.47
2018-11-21T21:53:09.039Z,9.53
2018-11-21T21:55:38.357Z,5.83
2018-11-21T21:58:07.502Z,10.10
2018-11-21T22:00:36.906Z,8.30
2018-11-21T22:03:06.229Z,11.97
2018-11-21T22:05:35.646Z,10.13
2018-11-21T22:08:05.639Z,7.80
2018-11-21T22:10:35.260Z,6.93
2018-11-21T22:13:04.973Z,7.47
2018-11-21T22:15:35.677Z,5.93
2018-11-21T22:18:06.570Z,3.60
2018-11-21T22:20:36.004Z,7.80
2018-11-21T22:23:05.286Z,5.27
2018-11-21T22:25:34.383Z,10.33
2018-11-21T22:28:03.511Z,5.10
2018-11-21T22:30:32.621Z,3.80
2018-11-21T22:33:02.074Z,8.30
2018-11-21T22:35:33.098Z,8.37
2018-11-21T22:38:02.448Z,6.73
2018-11-21T22:40:31.813Z,5.00
2018-11-21T22:43:01.410Z,3.67
2018-11-21T22:45:30.720Z,5.20
2018-11-21T22:48:00.116Z,4.30
2018-11-21T22:50:30.037Z,3.67
2018-11-21T22:52:59.629Z,3.83
2018-11-21T22:55:28.766Z,10.93
2018-11-21T22:57:57.875Z,2.20
2018-11-21T23:00:49.641Z,2.80
2018-11-21T23:03:19.686Z,3.47
2018-11-21T23:05:49.370Z,3.23
2018-11-21T23:08:19.503Z,3.43
2018-11-21T23:10:48.893Z,3.20
2018-11-21T23:13:18.217Z,12.73
2018-11-21T23:15:47.345Z,4.83
2018-11-21T23:18:16.477Z,3.87
2018-11-21T23:20:45.581Z,2.70
2018-11-21T23:23:14.722Z,3.20
2018-11-21T23:25:43.924Z,3.83
2018-11-21T23:28:13.044Z,3.60
2018-11-21T23:30:42.495Z,3.53
2018-11-21T23:33:11.869Z,2.83
2018-11-21T23:35:41.011Z,2.90
2018-11-21T23:38:10.107Z,2.60
2018-11-21T23:40:39.234Z,2.53
2018-11-21T23:43:08.649Z,4.30
2018-11-21T23:45:40.778Z,9.73
2018-11-21T23:48:09.923Z,4.53
2018-11-21T23:50:39.334Z,2.63
2018-11-21T23:53:08.895Z,3.30
2018-11-21T23:55:38.252Z,2.27
2018-11-21T23:58:07.911Z,4.70
